<?xml version="1.0" encoding="UTF-8" standalone="no" ?>
<gpx xmlns="http://www.topografix.com/GPX/1/1" xmlns:xsi="http://www.w3.org/2001/XMLSchema-instance" xsi:schemaLocation="http://www.topografix.com/GPX/1/1 http://www.topografix.com/GPX/1/1/gpx.xsd" version="1.1" creator="VisuGPX - https://www.visugpx.com">
  <metadata>
    <name>Boucle vers la Bergeonnière</name>
  </metadata>
  <trk>
    <name><![CDATA[Tracé 20 nov. 2020 14:16:24]]></name>
    <trkseg>
      <trkpt lat="45.83226" lon="4.71018">
        <ele>306.89638</ele>
        <time>2020-11-20T13:16:24.000Z</time>
      </trkpt>
      <trkpt lat="45.83236" lon="4.70989">
        <ele>306.65876</ele>
        <time>2020-11-20T13:16:53.000Z</time>
      </trkpt>
      <trkpt lat="45.832" lon="4.70911">
        <ele>308.85875</ele>
        <time>2020-11-20T13:18:18.000Z</time>
      </trkpt>
      <trkpt lat="45.83198" lon="4.70853">
        <ele>310.55441</ele>
        <time>2020-11-20T13:19:17.000Z</time>
      </trkpt>
      <trkpt lat="45.83173" lon="4.70846">
        <ele>310.75672</ele>
        <time>2020-11-20T13:20:16.000Z</time>
      </trkpt>
      <trkpt lat="45.83114" lon="4.70738">
        <ele>314.29668</ele>
        <time>2020-11-20T13:21:17.000Z</time>
      </trkpt>
      <trkpt lat="45.83096" lon="4.70637">
        <ele>316.82559</ele>
        <time>2020-11-20T13:22:19.000Z</time>
      </trkpt>
      <trkpt lat="45.83066" lon="4.70761">
        <ele>313.59677</ele>
        <time>2020-11-20T13:23:16.000Z</time>
      </trkpt>
      <trkpt lat="45.83034" lon="4.70828">
        <ele>311.74359</ele>
        <time>2020-11-20T13:24:15.000Z</time>
      </trkpt>
      <trkpt lat="45.82996" lon="4.70951">
        <ele>308.09838</ele>
        <time>2020-11-20T13:25:17.000Z</time>
      </trkpt>
      <trkpt lat="45.82971" lon="4.70981">
        <ele>306.32475</ele>
        <time>2020-11-20T13:26:14.000Z</time>
      </trkpt>
      <trkpt lat="45.82937" lon="4.71083">
        <ele>302.64434</ele>
        <time>2020-11-20T13:27:16.000Z</time>
      </trkpt>
      <trkpt lat="45.8294" lon="4.71173">
        <ele>298.33398</ele>
        <time>2020-11-20T13:28:16.000Z</time>
      </trkpt>
      <trkpt lat="45.82944" lon="4.71269">
        <ele>291.88649</ele>
        <time>2020-11-20T13:29:15.000Z</time>
      </trkpt>
      <trkpt lat="45.82895" lon="4.71311">
        <ele>282.75436</ele>
        <time>2020-11-20T13:30:15.000Z</time>
      </trkpt>
      <trkpt lat="45.82886" lon="4.71427">
        <ele>279.70652</ele>
        <time>2020-11-20T13:31:16.000Z</time>
      </trkpt>
      <trkpt lat="45.82889" lon="4.71428">
        <ele>279.61943</ele>
        <time>2020-11-20T13:32:14.000Z</time>
      </trkpt>
      <trkpt lat="45.82899" lon="4.71467">
        <ele>279.45063</ele>
        <time>2020-11-20T13:33:16.000Z</time>
      </trkpt>
      <trkpt lat="45.82894" lon="4.7155">
        <ele>278.96483</ele>
        <time>2020-11-20T13:34:15.000Z</time>
      </trkpt>
      <trkpt lat="45.82862" lon="4.71636">
        <ele>282.66223</ele>
        <time>2020-11-20T13:35:15.000Z</time>
      </trkpt>
      <trkpt lat="45.82787" lon="4.71679">
        <ele>285.64737</ele>
        <time>2020-11-20T13:36:15.000Z</time>
      </trkpt>
      <trkpt lat="45.82838" lon="4.71688">
        <ele>286.07065</ele>
        <time>2020-11-20T13:37:22.000Z</time>
      </trkpt>
      <trkpt lat="45.82809" lon="4.71871">
        <ele>288.98474</ele>
        <time>2020-11-20T13:38:16.000Z</time>
      </trkpt>
      <trkpt lat="45.82809" lon="4.71906">
        <ele>289.03794</ele>
        <time>2020-11-20T13:39:16.000Z</time>
      </trkpt>
      <trkpt lat="45.82771" lon="4.72046">
        <ele>293.71749</ele>
        <time>2020-11-20T13:40:17.000Z</time>
      </trkpt>
      <trkpt lat="45.82814" lon="4.72097">
        <ele>299.17882</ele>
        <time>2020-11-20T13:41:21.000Z</time>
      </trkpt>
      <trkpt lat="45.82703" lon="4.72403">
        <ele>313.69322</ele>
        <time>2020-11-20T13:44:16.000Z</time>
      </trkpt>
      <trkpt lat="45.82779" lon="4.72448">
        <ele>309.77716</ele>
        <time>2020-11-20T13:45:14.000Z</time>
      </trkpt>
      <trkpt lat="45.82822" lon="4.72419">
        <ele>306.66916</ele>
        <time>2020-11-20T13:46:17.000Z</time>
      </trkpt>
      <trkpt lat="45.82822" lon="4.72419">
        <ele>306.66916</ele>
        <time>2020-11-20T13:46:17.000Z</time>
      </trkpt>
      <trkpt lat="45.82853" lon="4.72453">
        <ele>304.13532</ele>
        <time>2020-11-20T13:47:16.000Z</time>
      </trkpt>
      <trkpt lat="45.82907" lon="4.7247">
        <ele>297.25747</ele>
        <time>2020-11-20T13:48:16.000Z</time>
      </trkpt>
      <trkpt lat="45.83065" lon="4.72581">
        <ele>291.37586</ele>
        <time>2020-11-20T13:49:15.000Z</time>
      </trkpt>
      <trkpt lat="45.83094" lon="4.72638">
        <ele>291.32092</ele>
        <time>2020-11-20T13:50:15.000Z</time>
      </trkpt>
      <trkpt lat="45.83156" lon="4.72622">
        <ele>288.35792</ele>
        <time>2020-11-20T13:51:15.000Z</time>
      </trkpt>
      <trkpt lat="45.83215" lon="4.7265">
        <ele>285.51482</ele>
        <time>2020-11-20T13:52:16.000Z</time>
      </trkpt>
      <trkpt lat="45.83223" lon="4.72548">
        <ele>282.74573</ele>
        <time>2020-11-20T13:53:15.000Z</time>
      </trkpt>
      <trkpt lat="45.83243" lon="4.72484">
        <ele>279.56026</ele>
        <time>2020-11-20T13:54:15.000Z</time>
      </trkpt>
      <trkpt lat="45.83235" lon="4.72417">
        <ele>282.14311</ele>
        <time>2020-11-20T13:55:15.000Z</time>
      </trkpt>
      <trkpt lat="45.83211" lon="4.72315">
        <ele>289.25341</ele>
        <time>2020-11-20T13:56:16.000Z</time>
      </trkpt>
      <trkpt lat="45.83259" lon="4.72271">
        <ele>287.88835</ele>
        <time>2020-11-20T13:57:15.000Z</time>
      </trkpt>
      <trkpt lat="45.83322" lon="4.72219">
        <ele>285.62518</ele>
        <time>2020-11-20T13:58:14.000Z</time>
      </trkpt>
      <trkpt lat="45.83365" lon="4.72207">
        <ele>284.11555</ele>
        <time>2020-11-20T13:59:14.000Z</time>
      </trkpt>
      <trkpt lat="45.83435" lon="4.72072">
        <ele>278.58087</ele>
        <time>2020-11-20T14:00:17.000Z</time>
      </trkpt>
      <trkpt lat="45.83425" lon="4.72">
        <ele>276.96512</ele>
        <time>2020-11-20T14:01:15.000Z</time>
      </trkpt>
      <trkpt lat="45.83452" lon="4.71932">
        <ele>276.33908</ele>
        <time>2020-11-20T14:02:16.000Z</time>
      </trkpt>
      <trkpt lat="45.83458" lon="4.71849">
        <ele>270.78832</ele>
        <time>2020-11-20T14:03:14.000Z</time>
      </trkpt>
      <trkpt lat="45.83418" lon="4.71713">
        <ele>265.77884</ele>
        <time>2020-11-20T14:04:15.000Z</time>
      </trkpt>
      <trkpt lat="45.83393" lon="4.71679">
        <ele>269.3029</ele>
        <time>2020-11-20T14:05:15.000Z</time>
      </trkpt>
      <trkpt lat="45.8341" lon="4.71581">
        <ele>280.10837</ele>
        <time>2020-11-20T14:06:16.000Z</time>
      </trkpt>
      <trkpt lat="45.83451" lon="4.7159">
        <ele>286.29524</ele>
        <time>2020-11-20T14:07:15.000Z</time>
      </trkpt>
      <trkpt lat="45.83439" lon="4.71591">
        <ele>284.8874</ele>
        <time>2020-11-20T14:08:15.000Z</time>
      </trkpt>
      <trkpt lat="45.83438" lon="4.71587">
        <ele>285.30282</ele>
        <time>2020-11-20T14:09:16.000Z</time>
      </trkpt>
      <trkpt lat="45.83498" lon="4.71468">
        <ele>292.80833</ele>
        <time>2020-11-20T14:10:16.000Z</time>
      </trkpt>
      <trkpt lat="45.83554" lon="4.71423">
        <ele>293.72234</ele>
        <time>2020-11-20T14:11:16.000Z</time>
      </trkpt>
      <trkpt lat="45.83576" lon="4.71345">
        <ele>292.79373</ele>
        <time>2020-11-20T14:12:15.000Z</time>
      </trkpt>
      <trkpt lat="45.8359" lon="4.71223">
        <ele>294.1406</ele>
        <time>2020-11-20T14:13:16.000Z</time>
      </trkpt>
      <trkpt lat="45.83585" lon="4.71158">
        <ele>295.04909</ele>
        <time>2020-11-20T14:14:15.000Z</time>
      </trkpt>
      <trkpt lat="45.83568" lon="4.71072">
        <ele>297.19966</ele>
        <time>2020-11-20T14:15:16.000Z</time>
      </trkpt>
      <trkpt lat="45.83524" lon="4.70997">
        <ele>299.17447</ele>
        <time>2020-11-20T14:16:16.000Z</time>
      </trkpt>
      <trkpt lat="45.83481" lon="4.70973">
        <ele>301.83502</ele>
        <time>2020-11-20T14:17:15.000Z</time>
      </trkpt>
      <trkpt lat="45.83417" lon="4.70977">
        <ele>304.2437</ele>
        <time>2020-11-20T14:19:01.000Z</time>
      </trkpt>
      <trkpt lat="45.83345" lon="4.71003">
        <ele>305.19685</ele>
        <time>2020-11-20T14:20:02.000Z</time>
      </trkpt>
      <trkpt lat="45.8332" lon="4.70928">
        <ele>306.70732</ele>
        <time>2020-11-20T14:21:04.000Z</time>
      </trkpt>
    </trkseg>
  </trk>
</gpx>